Time;durP1;ratioP1;P1;durP2;ratioP2;P2;SDS_P1;SDS_P2;PMS_P1;PMS_P2;Temp;Humidity;BMP_temperature;BMP_pressure;BME280_temperature;BME280_humidity;BME280_pressure;Samples;Min_cycle;Max_cycle;Signal;HPM_P1;HPM_P2
2022/01/21 08:34:21;;;;;;;;;;;;;;;;;;356116;27;1416;-81
2022/01/21 08:34:34;;;;;;;;;;;;;;;;;;354259;28;1285;-80
2022/01/21 08:34:45;;;;;;;;;;;;;;;;;;352983;28;879;-80
2022/01/21 08:34:55;;;;;;;;;;;;;;;;;;351882;28;906;-83
2022/01/21 08:35:06;;;;;;;;;;;;;;;;;;350314;28;1044;-83
2022/01/21 08:35:17;;;;;;;;;;;;;;;;;;350046;28;994;-83
2022/01/21 08:35:27;;;;;;;;;;;;;;;;;;348704;28;854;-81
2022/01/21 08:35:38;;;;;;;;;;;;;;;;;;348686;28;1021;-81
2022/01/21 08:35:48;;;;;;;;;;;;;;;;;;348577;28;831;-82
2022/01/21 08:35:58;;;;;;;;;;;;;;;;;;348702;28;834;-81
2022/01/21 08:36:10;;;;;;;;;;;;;;;;;;348766;28;769;-81
2022/01/21 08:36:21;;;;;;;;;;;;;;;;;;348641;28;1032;-81
2022/01/21 08:36:31;;;;;;;;;;;;;;;;;;349909;28;799;-88
2022/01/21 08:36:43;;;;;;;;;;;;;;;;;;350863;28;1020;-88
2022/01/21 08:36:54;;;;;;;;;;;;;;;;;;352565;28;969;-88
2022/01/21 08:37:05;;;;;;;;;;;;;;;;;;351191;28;1361;-87
2022/01/21 08:37:16;;;;;;;;;;;;;;;;;;351513;28;985;-87
2022/01/21 08:37:27;;;;;;;;;;;;;;;;;;352427;28;1055;-88
2022/01/21 08:37:37;;;;;;;;;;;;;;;;;;351090;28;969;-82
2022/01/21 08:37:48;;;;;;;;;;;;;;;;;;351170;28;977;-80
2022/01/21 08:37:58;;;;;;;;;;;;;;;;;;351076;28;779;-81
2022/01/21 08:38:09;;;;;;;;;;;;;;;;;;351061;28;883;-83
2022/01/21 08:38:21;;;;;;;;;;;;;;;;;;351087;28;1343;-84
2022/01/21 08:38:32;;;;;;;;;;;;;;;;;;351333;28;483;-82
2022/01/21 08:38:42;;;;;;;;;;;;;;;;;;351229;28;990;-82
2022/01/21 08:38:53;;;;;;;;;;;;;;;;;;351322;28;829;-81
2022/01/21 08:39:03;;;;;;;;;;;;;;;;;;352317;28;1009;-83
2022/01/21 08:39:14;;;;;;;;;;;;;;;;;;352608;28;985;-83
2022/01/21 08:39:25;;;;;;;;;;;;;;;;;;352425;28;933;-84
2022/01/21 08:39:35;;;;;;;;;;;;;;;;;;352471;28;917;-81
2022/01/21 08:39:46;;;;;;;;;;;;;;;;;;352434;28;962;-83
2022/01/21 08:39:56;;;;;;;;;;;;;;;;;;352378;28;940;-80
2022/01/21 08:40:07;;;;;;;;;;;;;;;;;;352404;28;984;-80
2022/01/21 08:40:18;;;;;;;;;;;;;;;;;;353501;28;955;-80
2022/01/21 08:40:28;;;;;;;;;;;;;;;;;;354046;28;882;-80
2022/01/21 08:40:40;;;;;;;;;;;;;;;;;;353888;28;877;-80
2022/01/21 08:40:50;;;;;;;;;;;;;;;;;;353983;28;775;-80
2022/01/21 08:41:01;;;;;;;;;;;;;;;;;;352391;28;1441;-80
2022/01/21 08:41:11;;;;;;;;;;;;;;;;;;352450;28;810;-81
2022/01/21 08:41:22;;;;;;;;;;;;;;;;;;352430;28;720;-83
2022/01/21 08:41:33;;;;;;;;;;;;;;;;;;350933;28;921;-81
2022/01/21 08:41:43;;;;;;;;;;;;;;;;;;350988;28;901;-83
2022/01/21 08:41:53;;;;;;;;;;;;;;;;;;349551;28;1189;-83
2022/01/21 08:42:06;;;;;;;;;;;;;;;;;;348203;28;1176;-83
2022/01/21 08:42:16;;;;;;;;;;;;;;;;;;348181;28;914;-82
2022/01/21 08:42:27;;;;;;;;;;;;;;;;;;348308;28;1004;-82
2022/01/21 08:42:37;;;;;;;;;;;;;;;;;;348327;28;929;-81
2022/01/21 08:42:48;;;;;;;;;;;;;;;;;;348407;28;759;-80
2022/01/21 08:42:58;;;;;;;;;;;;;;;;;;348052;28;1080;-81
2022/01/21 08:43:09;;;;;;;;;;;;;;;;;;348481;28;858;-79
2022/01/21 08:43:19;;;;;;;;;;;;;;;;;;348509;28;1087;-83
2022/01/21 08:43:30;;;;;;;;;;;;;;;;;;349275;28;969;-87
2022/01/21 08:43:40;;;;;;;;;;;;;;;;;;349677;28;973;-86
2022/01/21 08:43:50;;;;;;;;;;;;;;;;;;350417;28;989;-86
2022/01/21 08:44:01;;;;;;;;;;;;;;;;;;351999;28;992;-86
2022/01/21 08:44:11;;;;;;;;;;;;;;;;;;352494;28;892;-85
2022/01/21 08:44:22;;;;;;;;;;;;;;;;;;352552;28;937;-80
2022/01/21 08:44:32;;;;;;;;;;;;;;;;;;352585;28;929;-81
2022/01/21 08:44:43;;;;;;;;;;;;;;;;;;352480;28;1028;-85
2022/01/21 08:44:53;;;;;;;;;;;;;;;;;;353264;28;1095;-89
2022/01/21 08:45:04;;;;;;;;;;;;;;;;;;354049;28;1040;-89
2022/01/21 08:45:16;;;;;;;;;;;;;;;;;;354055;28;984;-89
2022/01/21 08:45:26;;;;;;;;;;;;;;;;;;352441;28;1426;-90
2022/01/21 08:45:37;;;;;;;;;;;;;;;;;;351236;28;1060;-82
2022/01/21 08:45:47;;;;;;;;;;;;;;;;;;351045;28;920;-86
2022/01/21 08:45:58;;;;;;;;;;;;;;;;;;351113;28;929;-84
2022/01/21 08:46:09;;;;;;;;;;;;;;;;;;351035;28;921;-85
2022/01/21 08:46:20;;;;;;;;;;;;;;;;;;349500;28;1228;-85
2022/01/21 08:46:30;;;;;;;;;;;;;;;;;;348305;28;665;-83
2022/01/21 08:46:41;;;;;;;;;;;;;;;;;;348229;28;973;-86
2022/01/21 08:46:52;;;;;;;;;;;;;;;;;;346950;28;973;-91
2022/01/21 08:47:03;;;;;;;;;;;;;;;;;;347141;28;1033;-91
2022/01/21 08:47:15;;;;;;;;;;;;;;;;;;347101;28;869;-90
2022/01/21 08:47:25;;;;;;;;;;;;;;;;;;348241;28;1052;-93
2022/01/21 08:47:36;;;;;;;;;;;;;;;;;;349640;28;835;-92
2022/01/21 08:47:46;;;;;;;;;;;;;;;;;;349868;28;1047;-91
2022/01/21 08:47:57;;;;;;;;;;;;;;;;;;348262;28;969;-90
2022/01/21 08:48:07;;;;;;;;;;;;;;;;;;348320;28;917;-87
2022/01/21 08:48:18;;;;;;;;;;;;;;;;;;347933;28;965;-89
2022/01/21 08:48:28;;;;;;;;;;;;;;;;;;348259;28;997;-89
2022/01/21 08:48:39;;;;;;;;;;;;;;;;;;348314;28;973;-85
2022/01/21 08:48:49;;;;;;;;;;;;;;;;;;348284;28;926;-86
2022/01/21 08:49:06;;;;;;;;;;;;;;;;;;348303;28;807;-84
2022/01/21 08:49:20;;;;;;;;;;;;;;;;;;348591;28;803;-86
2022/01/21 08:49:31;;;;;;;;;;;;;;;;;;348364;28;792;-87
2022/01/21 08:49:44;;;;;;;;;;;;;;;;;;348220;28;1623;-84
2022/01/21 08:49:56;;;;;;;;;;;;;;;;;;349072;28;1145;-87
2022/01/21 08:50:09;;;;;;;;;;;;;;;;;;349677;28;894;-85
2022/01/21 08:50:21;;;;;;;;;;;;;;;;;;349668;28;803;-85
2022/01/21 08:50:31;;;;;;;;;;;;;;;;;;348329;28;1239;-87
2022/01/21 08:50:42;;;;;;;;;;;;;;;;;;348248;28;989;-85
2022/01/21 08:50:52;;;;;;;;;;;;;;;;;;348411;28;982;-88
2022/01/21 08:51:08;;;;;;;;;;;;;;;;;;348329;28;957;-84
2022/01/21 08:51:25;;;;;;;;;;;;;;;;;;348520;28;1049;-88
2022/01/21 08:51:52;;;;;;;;;;;;;;;;;;349910;28;1001;-87
2022/01/21 08:52:02;;;;;;;;;;;;;;;;;;351259;28;1000;-88
2022/01/21 08:52:19;;;;;;;;;;;;;;;;;;351038;28;881;-87
2022/01/21 08:52:31;;;;;;;;;;;;;;;;;;352006;28;996;-87
2022/01/21 08:52:41;;;;;;;;;;;;;;;;;;352574;28;845;-87
2022/01/21 08:52:56;;;;;;;;;;;;;;;;;;351027;28;1198;-86
2022/01/21 08:53:10;;;;;;;;;;;;;;;;;;349633;28;1174;-85
2022/01/21 08:53:38;;;;;;;;;;;;;;;;;;349581;28;830;-84
2022/01/21 08:53:49;;;;;;;;;;;;;;;;;;349607;28;1068;-84
2022/01/21 08:53:59;;;;;;;;;;;;;;;;;;349591;28;1902;-82
2022/01/21 08:54:10;;;;;;;;;;;;;;;;;;349711;28;933;-83
2022/01/21 08:54:20;;;;;;;;;;;;;;;;;;349596;28;1024;-84
2022/01/21 08:54:30;;;;;;;;;;;;;;;;;;349608;28;842;-84
2022/01/21 08:54:41;;;;;;;;;;;;;;;;;;349696;28;969;-84
2022/01/21 08:54:51;;;;;;;;;;;;;;;;;;349431;28;946;-84
2022/01/21 08:55:02;;;;;;;;;;;;;;;;;;349682;28;980;-83
2022/01/21 08:55:15;;;;;;;;;;;;;;;;;;349696;28;969;-85
2022/01/21 08:55:26;;;;;;;;;;;;;;;;;;350295;28;938;-85
2022/01/21 08:55:36;;;;;;;;;;;;;;;;;;351241;28;1047;-86
2022/01/21 08:55:47;;;;;;;;;;;;;;;;;;351244;28;956;-86
2022/01/21 08:55:58;;;;;;;;;;;;;;;;;;351288;28;945;-85
2022/01/21 08:56:10;;;;;;;;;;;;;;;;;;349852;28;1009;-85
2022/01/21 08:56:21;;;;;;;;;;;;;;;;;;349870;28;1064;-85
2022/01/21 08:56:32;;;;;;;;;;;;;;;;;;349743;28;853;-83
2022/01/21 08:56:43;;;;;;;;;;;;;;;;;;349723;28;957;-82
2022/01/21 08:56:55;;;;;;;;;;;;;;;;;;351089;28;842;-82
2022/01/21 08:57:05;;;;;;;;;;;;;;;;;;351120;28;973;-80
2022/01/21 08:57:16;;;;;;;;;;;;;;;;;;351090;28;810;-80
2022/01/21 08:57:26;;;;;;;;;;;;;;;;;;349601;28;989;-81
2022/01/21 08:57:39;;;;;;;;;;;;;;;;;;349650;28;957;-84
2022/01/21 08:57:49;;;;;;;;;;;;;;;;;;349716;28;893;-84
2022/01/21 08:58:00;;;;;;;;;;;;;;;;;;349556;28;981;-81
2022/01/21 08:58:10;;;;;;;;;;;;;;;;;;346915;28;994;-79
2022/01/21 08:58:21;;;;;;;;;;;;;;;;;;348067;28;1045;-82
2022/01/21 08:58:31;;;;;;;;;;;;;;;;;;348277;28;866;-81
2022/01/21 08:58:43;;;;;;;;;;;;;;;;;;348192;28;929;-81
2022/01/21 08:58:54;;;;;;;;;;;;;;;;;;348200;28;823;-82
2022/01/21 08:59:04;;;;;;;;;;;;;;;;;;346754;28;1547;-84
2022/01/21 08:59:16;;;;;;;;;;;;;;;;;;346907;28;948;-80
2022/01/21 08:59:26;;;;;;;;;;;;;;;;;;346734;28;1022;-81
2022/01/21 08:59:37;;;;;;;;;;;;;;;;;;346851;28;1053;-82
2022/01/21 08:59:49;;;;;;;;;;;;;;;;;;346971;28;914;-87
2022/01/21 08:59:59;;;;;;;;;;;;;;;;;;347037;28;1013;-87
2022/01/21 09:00:12;;;;;;;;;;;;;;;;;;349353;28;961;-87
2022/01/21 09:00:23;;;;;;;;;;;;;;;;;;349794;28;934;-87
2022/01/21 09:00:33;;;;;;;;;;;;;;;;;;349817;28;791;-86
2022/01/21 09:00:43;;;;;;;;;;;;;;;;;;349644;28;815;-84
2022/01/21 09:00:54;;;;;;;;;;;;;;;;;;349610;28;1021;-85
2022/01/21 09:01:05;;;;;;;;;;;;;;;;;;350827;28;862;-84
2022/01/21 09:01:16;;;;;;;;;;;;;;;;;;351057;28;953;-84
2022/01/21 09:01:26;;;;;;;;;;;;;;;;;;350953;28;1349;-85
2022/01/21 09:01:37;;;;;;;;;;;;;;;;;;351063;28;1075;-86
2022/01/21 09:01:51;;;;;;;;;;;;;;;;;;351039;28;885;-82
2022/01/21 09:02:01;;;;;;;;;;;;;;;;;;351258;28;882;-79
2022/01/21 09:02:12;;;;;;;;;;;;;;;;;;352588;28;1000;-81
2022/01/21 09:02:22;;;;;;;;;;;;;;;;;;352536;28;957;-81
2022/01/21 09:02:33;;;;;;;;;;;;;;;;;;351030;28;958;-78
2022/01/21 09:02:43;;;;;;;;;;;;;;;;;;351092;28;798;-77
2022/01/21 09:02:53;;;;;;;;;;;;;;;;;;351150;28;1020;-80
2022/01/21 09:03:04;;;;;;;;;;;;;;;;;;349582;28;1354;-82
2022/01/21 09:03:14;;;;;;;;;;;;;;;;;;349682;28;838;-80
2022/01/21 09:03:25;;;;;;;;;;;;;;;;;;349638;28;986;-83
2022/01/21 09:03:36;;;;;;;;;;;;;;;;;;348305;28;965;-84
2022/01/21 09:03:46;;;;;;;;;;;;;;;;;;348270;28;917;-85
2022/01/21 09:03:57;;;;;;;;;;;;;;;;;;346858;28;1412;-82
2022/01/21 09:04:07;;;;;;;;;;;;;;;;;;345645;28;1176;-82
2022/01/21 09:04:17;;;;;;;;;;;;;;;;;;345724;28;894;-83
2022/01/21 09:04:28;;;;;;;;;;;;;;;;;;346255;28;1028;-81
2022/01/21 09:04:38;;;;;;;;;;;;;;;;;;347075;28;736;-82
2022/01/21 09:04:49;;;;;;;;;;;;;;;;;;347075;28;1028;-82
2022/01/21 09:04:59;;;;;;;;;;;;;;;;;;347569;28;910;-79
2022/01/21 09:05:10;;;;;;;;;;;;;;;;;;348179;28;945;-80
2022/01/21 09:05:20;;;;;;;;;;;;;;;;;;348268;28;910;-83
2022/01/21 09:05:31;;;;;;;;;;;;;;;;;;348851;28;822;-82
2022/01/21 09:05:48;;;;;;;;;;;;;;;;;;348171;28;862;-83
2022/01/21 09:05:58;;;;;;;;;;;;;;;;;;348378;28;934;-81
2022/01/21 09:06:09;;;;;;;;;;;;;;;;;;349581;28;1008;-81
2022/01/21 09:06:19;;;;;;;;;;;;;;;;;;349593;28;1039;-80
2022/01/21 09:06:30;;;;;;;;;;;;;;;;;;349598;28;838;-82
2022/01/21 09:06:40;;;;;;;;;;;;;;;;;;349579;28;1021;-84
2022/01/21 09:06:50;;;;;;;;;;;;;;;;;;349706;28;1153;-84
2022/01/21 09:07:01;;;;;;;;;;;;;;;;;;349594;28;926;-84
2022/01/21 09:07:12;;;;;;;;;;;;;;;;;;349657;28;925;-84
2022/01/21 09:07:22;;;;;;;;;;;;;;;;;;349661;28;980;-84
2022/01/21 09:07:33;;;;;;;;;;;;;;;;;;351044;28;873;-84
2022/01/21 09:07:43;;;;;;;;;;;;;;;;;;351068;28;849;-85
2022/01/21 09:07:54;;;;;;;;;;;;;;;;;;351046;28;803;-80
2022/01/21 09:08:04;;;;;;;;;;;;;;;;;;351084;28;937;-82
2022/01/21 09:08:15;;;;;;;;;;;;;;;;;;351883;28;1754;-83
2022/01/21 09:08:29;;;;;;;;;;;;;;;;;;351825;28;1618;-82
2022/01/21 09:08:41;;;;;;;;;;;;;;;;;;351165;28;929;-81
2022/01/21 09:08:52;;;;;;;;;;;;;;;;;;351305;28;942;-82
2022/01/21 09:09:03;;;;;;;;;;;;;;;;;;351338;28;898;-82
2022/01/21 09:09:14;;;;;;;;;;;;;;;;;;351369;28;988;-79
2022/01/21 09:09:25;;;;;;;;;;;;;;;;;;351285;28;1044;-76
2022/01/21 09:09:35;;;;;;;;;;;;;;;;;;349677;28;795;-80
2022/01/21 09:09:45;;;;;;;;;;;;;;;;;;349789;28;1029;-79
2022/01/21 09:09:56;;;;;;;;;;;;;;;;;;349757;28;897;-80
2022/01/21 09:10:07;;;;;;;;;;;;;;;;;;349786;28;834;-82
2022/01/21 09:10:18;;;;;;;;;;;;;;;;;;349741;28;965;-81
2022/01/21 09:10:28;;;;;;;;;;;;;;;;;;349778;28;779;-81
2022/01/21 09:10:38;;;;;;;;;;;;;;;;;;349655;28;684;-81
2022/01/21 09:10:49;;;;;;;;;;;;;;;;;;350681;28;965;-82
2022/01/21 09:11:02;;;;;;;;;;;;;;;;;;351112;28;933;-79
2022/01/21 09:11:12;;;;;;;;;;;;;;;;;;351222;28;983;-83
2022/01/21 09:11:23;;;;;;;;;;;;;;;;;;351084;28;890;-81
2022/01/21 09:11:33;;;;;;;;;;;;;;;;;;352249;28;846;-82
2022/01/21 09:11:44;;;;;;;;;;;;;;;;;;352498;28;1127;-80
2022/01/21 09:11:59;;;;;;;;;;;;;;;;;;352617;28;969;-81
2022/01/21 09:12:10;;;;;;;;;;;;;;;;;;352507;28;806;-82
2022/01/21 09:12:20;;;;;;;;;;;;;;;;;;351044;28;882;-85
2022/01/21 09:12:31;;;;;;;;;;;;;;;;;;351159;28;1115;-86
2022/01/21 09:12:41;;;;;;;;;;;;;;;;;;351227;28;965;-86
2022/01/21 09:12:51;;;;;;;;;;;;;;;;;;351259;28;1047;-83
2022/01/21 09:13:02;;;;;;;;;;;;;;;;;;348332;28;1321;-82
2022/01/21 09:13:12;;;;;;;;;;;;;;;;;;348503;28;997;-83
2022/01/21 09:13:26;;;;;;;;;;;;;;;;;;348387;28;970;-85
2022/01/21 09:13:40;;;;;;;;;;;;;;;;;;348385;28;942;-84
2022/01/21 09:13:51;;;;;;;;;;;;;;;;;;346974;28;1057;-79
2022/01/21 09:14:03;;;;;;;;;;;;;;;;;;346839;28;1899;-82
2022/01/21 09:14:13;;;;;;;;;;;;;;;;;;347724;28;1654;-85
2022/01/21 09:14:24;;;;;;;;;;;;;;;;;;349248;28;1629;-88
2022/01/21 09:14:34;;;;;;;;;;;;;;;;;;348595;28;839;-88
2022/01/21 09:14:45;;;;;;;;;;;;;;;;;;348420;28;934;-89
2022/01/21 09:14:55;;;;;;;;;;;;;;;;;;348254;28;1191;-73
2022/01/21 09:15:06;;;;;;;;;;;;;;;;;;348422;28;776;-72
2022/01/21 09:15:23;;;;;;;;;;;;;;;;;;348373;28;982;-73
2022/01/21 09:15:35;;;;;;;;;;;;;;;;;;348460;28;989;-71
2022/01/21 09:15:45;;;;;;;;;;;;;;;;;;348899;28;982;-74
2022/01/21 09:15:59;;;;;;;;;;;;;;;;;;349761;28;973;-73
2022/01/21 09:16:10;;;;;;;;;;;;;;;;;;349812;28;1586;-77
2022/01/21 09:16:20;;;;;;;;;;;;;;;;;;348415;28;1551;-73
2022/01/21 09:16:31;;;;;;;;;;;;;;;;;;349400;28;1524;-76
2022/01/21 09:16:42;;;;;;;;;;;;;;;;;;348514;28;970;-78
2022/01/21 09:16:53;;;;;;;;;;;;;;;;;;349256;28;1018;-79
2022/01/21 09:17:04;;;;;;;;;;;;;;;;;;350063;28;978;-78
2022/01/21 09:17:14;;;;;;;;;;;;;;;;;;350199;28;1005;-78
2022/01/21 09:17:25;;;;;;;;;;;;;;;;;;350109;28;910;-78
2022/01/21 09:17:37;;;;;;;;;;;;;;;;;;348919;28;815;-77
2022/01/21 09:17:47;;;;;;;;;;;;;;;;;;348723;28;1001;-75
2022/01/21 09:18:03;;;;;;;;;;;;;;;;;;348588;28;795;-78
2022/01/21 09:18:18;;;;;;;;;;;;;;;;;;347639;28;1635;-77
2022/01/21 09:18:44;;;;;;;;;;;;;;;;;;347254;28;954;-77
2022/01/21 09:18:57;;;;;;;;;;;;;;;;;;348518;28;1076;-75
2022/01/21 09:19:07;;;;;;;;;;;;;;;;;;348634;28;1021;-80
2022/01/21 09:19:18;;;;;;;;;;;;;;;;;;348706;28;1593;-80
2022/01/21 09:19:29;;;;;;;;;;;;;;;;;;347496;28;1589;-80
2022/01/21 09:19:39;;;;;;;;;;;;;;;;;;347244;28;1021;-79
2022/01/21 09:19:50;;;;;;;;;;;;;;;;;;347389;28;1092;-79
2022/01/21 09:20:00;;;;;;;;;;;;;;;;;;349626;28;1377;-78
2022/01/21 09:20:11;;;;;;;;;;;;;;;;;;348623;28;1155;-78
2022/01/21 09:20:21;;;;;;;;;;;;;;;;;;347605;28;752;-78
2022/01/21 09:20:32;;;;;;;;;;;;;;;;;;348485;28;1427;-81
2022/01/21 09:20:43;;;;;;;;;;;;;;;;;;347381;28;1017;-79
2022/01/21 09:20:53;;;;;;;;;;;;;;;;;;347198;28;800;-81
2022/01/21 09:21:03;;;;;;;;;;;;;;;;;;347235;28;802;-79
2022/01/21 09:21:15;;;;;;;;;;;;;;;;;;347525;28;883;-82
2022/01/21 09:21:27;;;;;;;;;;;;;;;;;;347344;28;911;-78
2022/01/21 09:21:42;;;;;;;;;;;;;;;;;;348054;28;1069;-77
2022/01/21 09:21:54;;;;;;;;;;;;;;;;;;348460;28;824;-77
2022/01/21 09:22:04;;;;;;;;;;;;;;;;;;348257;28;1589;-85
2022/01/21 09:22:15;;;;;;;;;;;;;;;;;;348611;28;1088;-77
2022/01/21 09:22:25;;;;;;;;;;;;;;;;;;349666;28;985;-82
2022/01/21 09:22:36;;;;;;;;;;;;;;;;;;349572;28;909;-79
2022/01/21 09:22:46;;;;;;;;;;;;;;;;;;349476;28;826;-78
2022/01/21 09:22:56;;;;;;;;;;;;;;;;;;349632;28;981;-75
2022/01/21 09:23:07;;;;;;;;;;;;;;;;;;348196;28;1013;-78
2022/01/21 09:23:17;;;;;;;;;;;;;;;;;;348179;28;813;-79
2022/01/21 09:23:28;;;;;;;;;;;;;;;;;;349581;28;965;-83
2022/01/21 09:23:38;;;;;;;;;;;;;;;;;;349565;28;813;-83
2022/01/21 09:23:49;;;;;;;;;;;;;;;;;;348196;28;993;-81
2022/01/21 09:24:00;;;;;;;;;;;;;;;;;;348838;28;926;-82
2022/01/21 09:24:10;;;;;;;;;;;;;;;;;;349605;28;902;-84
2022/01/21 09:24:21;;;;;;;;;;;;;;;;;;349606;28;961;-77
2022/01/21 09:24:33;;;;;;;;;;;;;;;;;;349640;28;938;-81
2022/01/21 09:24:43;;;;;;;;;;;;;;;;;;349627;28;791;-82
2022/01/21 09:24:53;;;;;;;;;;;;;;;;;;349589;28;859;-79
2022/01/21 09:25:04;;;;;;;;;;;;;;;;;;350363;28;1358;-81
2022/01/21 09:25:14;;;;;;;;;;;;;;;;;;349543;28;1352;-80
2022/01/21 09:25:25;;;;;;;;;;;;;;;;;;349686;28;803;-82
2022/01/21 09:25:36;;;;;;;;;;;;;;;;;;349822;28;863;-84
2022/01/21 09:25:46;;;;;;;;;;;;;;;;;;349871;28;847;-83
2022/01/21 09:25:57;;;;;;;;;;;;;;;;;;348423;28;2181;-84
2022/01/21 09:26:08;;;;;;;;;;;;;;;;;;348413;28;1044;-87
2022/01/21 09:26:19;;;;;;;;;;;;;;;;;;349696;28;1555;-81
2022/01/21 09:26:30;;;;;;;;;;;;;;;;;;349644;28;862;-77
2022/01/21 09:26:42;;;;;;;;;;;;;;;;;;349548;28;1040;-79
2022/01/21 09:26:52;;;;;;;;;;;;;;;;;;349763;28;760;-79
2022/01/21 09:27:04;;;;;;;;;;;;;;;;;;349658;28;964;-79
2022/01/21 09:27:14;;;;;;;;;;;;;;;;;;350896;28;985;-76
2022/01/21 09:27:24;;;;;;;;;;;;;;;;;;350957;28;942;-73
2022/01/21 09:27:35;;;;;;;;;;;;;;;;;;351058;28;849;-77
2022/01/21 09:27:46;;;;;;;;;;;;;;;;;;350979;28;921;-78
2022/01/21 09:27:58;;;;;;;;;;;;;;;;;;350964;28;1024;-81
2022/01/21 09:28:09;;;;;;;;;;;;;;;;;;350902;28;985;-78
2022/01/21 09:28:19;;;;;;;;;;;;;;;;;;351063;28;1059;-79
2022/01/21 09:28:30;;;;;;;;;;;;;;;;;;351017;28;841;-77
2022/01/21 09:28:40;;;;;;;;;;;;;;;;;;351087;28;775;-77
2022/01/21 09:28:51;;;;;;;;;;;;;;;;;;350962;28;847;-77
2022/01/21 09:29:05;;;;;;;;;;;;;;;;;;351005;28;1036;-80
2022/01/21 09:29:16;;;;;;;;;;;;;;;;;;349597;28;918;-79
2022/01/21 09:29:27;;;;;;;;;;;;;;;;;;351003;28;476;-79
2022/01/21 09:29:37;;;;;;;;;;;;;;;;;;349624;28;1170;-79
2022/01/21 09:29:48;;;;;;;;;;;;;;;;;;349625;28;898;-80
2022/01/21 09:29:58;;;;;;;;;;;;;;;;;;349707;28;966;-75
2022/01/21 09:30:09;;;;;;;;;;;;;;;;;;349780;28;1009;-74
2022/01/21 09:30:19;;;;;;;;;;;;;;;;;;349786;28;974;-74
2022/01/21 09:30:30;;;;;;;;;;;;;;;;;;349752;28;909;-74
2022/01/21 09:30:40;;;;;;;;;;;;;;;;;;349757;28;987;-73
2022/01/21 09:30:51;;;;;;;;;;;;;;;;;;349591;28;835;-73
2022/01/21 09:31:01;;;;;;;;;;;;;;;;;;349572;28;973;-73
2022/01/21 09:31:11;;;;;;;;;;;;;;;;;;350479;28;1001;-74
2022/01/21 09:31:22;;;;;;;;;;;;;;;;;;350888;28;1234;-73
2022/01/21 09:31:33;;;;;;;;;;;;;;;;;;351543;28;787;-73
2022/01/21 09:31:44;;;;;;;;;;;;;;;;;;352575;28;960;-72
2022/01/21 09:31:54;;;;;;;;;;;;;;;;;;352519;28;1104;-73
2022/01/21 09:32:05;;;;;;;;;;;;;;;;;;352504;28;1025;-74
2022/01/21 09:32:17;;;;;;;;;;;;;;;;;;352426;28;981;-73
2022/01/21 09:32:27;;;;;;;;;;;;;;;;;;352542;28;1028;-71
2022/01/21 09:32:38;;;;;;;;;;;;;;;;;;352506;28;933;-77
2022/01/21 09:32:48;;;;;;;;;;;;;;;;;;349638;28;1373;-73
2022/01/21 09:32:59;;;;;;;;;;;;;;;;;;349703;28;807;-71
2022/01/21 09:33:10;;;;;;;;;;;;;;;;;;349676;28;1048;-73
2022/01/21 09:33:20;;;;;;;;;;;;;;;;;;349615;28;934;-72
2022/01/21 09:33:31;;;;;;;;;;;;;;;;;;349617;28;1020;-73
2022/01/21 09:33:42;;;;;;;;;;;;;;;;;;349663;28;981;-88
2022/01/21 09:33:53;;;;;;;;;;;;;;;;;;348218;28;1175;-78
2022/01/21 09:34:05;;;;;;;;;;;;;;;;;;348266;28;1964;-78
2022/01/21 09:34:15;;;;;;;;;;;;;;;;;;348321;28;1220;-86
2022/01/21 09:34:27;;;;;;;;;;;;;;;;;;348430;28;977;-85
2022/01/21 09:34:37;;;;;;;;;;;;;;;;;;348394;28;1117;-87
2022/01/21 09:34:48;;;;;;;;;;;;;;;;;;350603;28;981;-81
2022/01/21 09:34:59;;;;;;;;;;;;;;;;;;351006;28;1055;-81
2022/01/21 09:35:10;;;;;;;;;;;;;;;;;;350979;28;807;-78
2022/01/21 09:35:21;;;;;;;;;;;;;;;;;;349425;28;1013;-79
2022/01/21 09:35:31;;;;;;;;;;;;;;;;;;349486;28;842;-81
2022/01/21 09:35:41;;;;;;;;;;;;;;;;;;349541;28;811;-80
2022/01/21 09:35:52;;;;;;;;;;;;;;;;;;350538;28;787;-81
2022/01/21 09:36:02;;;;;;;;;;;;;;;;;;350922;28;1043;-81
2022/01/21 09:36:13;;;;;;;;;;;;;;;;;;350809;28;1008;-75
2022/01/21 09:36:24;;;;;;;;;;;;;;;;;;350920;28;933;-78
2022/01/21 09:36:35;;;;;;;;;;;;;;;;;;350869;28;978;-82
2022/01/21 09:36:45;;;;;;;;;;;;;;;;;;350969;28;819;-81
2022/01/21 09:36:57;;;;;;;;;;;;;;;;;;350913;28;803;-79
2022/01/21 09:37:07;;;;;;;;;;;;;;;;;;349431;28;957;-81
2022/01/21 09:37:17;;;;;;;;;;;;;;;;;;350280;28;862;-79
2022/01/21 09:37:29;;;;;;;;;;;;;;;;;;349404;28;1199;-84
2022/01/21 09:37:39;;;;;;;;;;;;;;;;;;349473;28;988;-81
2022/01/21 09:37:49;;;;;;;;;;;;;;;;;;349519;28;1004;-73
2022/01/21 09:38:00;;;;;;;;;;;;;;;;;;349405;28;976;-76
2022/01/21 09:38:10;;;;;;;;;;;;;;;;;;349557;28;1219;-76
2022/01/21 09:38:21;;;;;;;;;;;;;;;;;;349596;28;877;-84
2022/01/21 09:38:31;;;;;;;;;;;;;;;;;;349832;28;790;-82
2022/01/21 09:38:42;;;;;;;;;;;;;;;;;;349809;28;984;-79
2022/01/21 09:38:52;;;;;;;;;;;;;;;;;;349835;28;988;-79
2022/01/21 09:39:03;;;;;;;;;;;;;;;;;;349821;28;985;-79
2022/01/21 09:39:14;;;;;;;;;;;;;;;;;;349744;28;1063;-86
2022/01/21 09:39:25;;;;;;;;;;;;;;;;;;351174;28;937;-80
2022/01/21 09:39:35;;;;;;;;;;;;;;;;;;352308;28;834;-78
2022/01/21 09:39:46;;;;;;;;;;;;;;;;;;352329;28;881;-84
2022/01/21 09:39:56;;;;;;;;;;;;;;;;;;350861;28;1102;-80
2022/01/21 09:40:07;;;;;;;;;;;;;;;;;;350969;28;985;-76
2022/01/21 09:40:18;;;;;;;;;;;;;;;;;;350821;28;839;-80
2022/01/21 09:40:32;;;;;;;;;;;;;;;;;;350886;28;885;-78
2022/01/21 09:40:49;;;;;;;;;;;;;;;;;;349383;28;1205;-82
2022/01/21 09:41:00;;;;;;;;;;;;;;;;;;349413;28;1033;-81
2022/01/21 09:41:11;;;;;;;;;;;;;;;;;;349562;28;807;-78
2022/01/21 09:41:21;;;;;;;;;;;;;;;;;;349394;28;929;-79
2022/01/21 09:41:32;;;;;;;;;;;;;;;;;;348025;28;1243;-77
2022/01/21 09:41:43;;;;;;;;;;;;;;;;;;348112;28;1005;-75
2022/01/21 09:41:59;;;;;;;;;;;;;;;;;;348895;28;811;-80
2022/01/21 09:42:10;;;;;;;;;;;;;;;;;;349413;28;918;-78
2022/01/21 09:42:20;;;;;;;;;;;;;;;;;;349540;28;945;-80
2022/01/21 09:42:34;;;;;;;;;;;;;;;;;;349502;28;929;-83
2022/01/21 09:42:45;;;;;;;;;;;;;;;;;;351134;28;1032;-84
2022/01/21 09:42:56;;;;;;;;;;;;;;;;;;351153;28;452;-80
2022/01/21 09:43:07;;;;;;;;;;;;;;;;;;351183;28;1013;-84
2022/01/21 09:43:18;;;;;;;;;;;;;;;;;;349685;28;1183;-84
2022/01/21 09:43:28;;;;;;;;;;;;;;;;;;350489;28;768;-84
2022/01/21 09:43:39;;;;;;;;;;;;;;;;;;351004;28;906;-82
2022/01/21 09:43:53;;;;;;;;;;;;;;;;;;349510;28;826;-84
2022/01/21 09:44:05;;;;;;;;;;;;;;;;;;349543;28;1008;-77
2022/01/21 09:44:17;;;;;;;;;;;;;;;;;;349471;28;973;-78
2022/01/21 09:44:29;;;;;;;;;;;;;;;;;;349509;28;803;-78
2022/01/21 09:44:40;;;;;;;;;;;;;;;;;;349523;28;870;-78
2022/01/21 09:44:51;;;;;;;;;;;;;;;;;;349546;28;980;-76
2022/01/21 09:45:07;;;;;;;;;;;;;;;;;;349404;28;819;-75
2022/01/21 09:45:22;;;;;;;;;;;;;;;;;;350905;28;811;-82
2022/01/21 09:45:33;;;;;;;;;;;;;;;;;;350808;28;937;-77
2022/01/21 09:45:54;;;;;;;;;;;;;;;;;;350649;28;1673;-84
2022/01/21 09:46:07;;;;;;;;;;;;;;;;;;350264;28;803;-82
2022/01/21 09:46:18;;;;;;;;;;;;;;;;;;350091;28;870;-80
2022/01/21 09:46:34;;;;;;;;;;;;;;;;;;350057;28;1243;-84
2022/01/21 09:46:47;;;;;;;;;;;;;;;;;;350145;28;1040;-81
2022/01/21 09:47:00;;;;;;;;;;;;;;;;;;350460;28;732;-83
2022/01/21 09:47:12;;;;;;;;;;;;;;;;;;350431;28;973;-86
2022/01/21 09:47:22;;;;;;;;;;;;;;;;;;350460;28;958;-83
2022/01/21 09:47:33;;;;;;;;;;;;;;;;;;350384;28;1075;-84
2022/01/21 09:47:48;;;;;;;;;;;;;;;;;;349005;28;973;-83
2022/01/21 09:48:04;;;;;;;;;;;;;;;;;;345993;28;1307;-79
2022/01/21 09:48:21;;;;;;;;;;;;;;;;;;346793;28;998;-81
2022/01/21 09:48:37;;;;;;;;;;;;;;;;;;347328;28;996;-80
2022/01/21 09:48:54;;;;;;;;;;;;;;;;;;347275;28;993;-81
2022/01/21 09:49:27;;;;;;;;;;;;;;;;;;347314;28;851;-81
2022/01/21 09:49:41;;;;;;;;;;;;;;;;;;347345;28;1167;-81
2022/01/21 09:49:52;;;;;;;;;;;;;;;;;;348884;28;881;-81
2022/01/21 09:50:03;;;;;;;;;;;;;;;;;;348647;28;988;-76
2022/01/21 09:50:16;;;;;;;;;;;;;;;;;;348619;28;740;-81
2022/01/21 09:50:26;;;;;;;;;;;;;;;;;;347268;28;982;-81
2022/01/21 09:50:37;;;;;;;;;;;;;;;;;;347330;28;989;-83
2022/01/21 09:50:49;;;;;;;;;;;;;;;;;;347387;28;902;-80
2022/01/21 09:51:00;;;;;;;;;;;;;;;;;;347366;28;966;-81
2022/01/21 09:51:11;;;;;;;;;;;;;;;;;;347810;28;922;-83
2022/01/21 09:51:21;;;;;;;;;;;;;;;;;;349089;28;811;-84
2022/01/21 09:51:32;;;;;;;;;;;;;;;;;;348996;28;1013;-84
2022/01/21 09:51:43;;;;;;;;;;;;;;;;;;349131;28;1032;-79
2022/01/21 09:51:55;;;;;;;;;;;;;;;;;;349012;28;1040;-78
2022/01/21 09:52:06;;;;;;;;;;;;;;;;;;350300;28;874;-77
2022/01/21 09:52:18;;;;;;;;;;;;;;;;;;349977;28;992;-78
2022/01/21 09:52:29;;;;;;;;;;;;;;;;;;350240;28;865;-79
2022/01/21 09:52:43;;;;;;;;;;;;;;;;;;350111;28;930;-75
2022/01/21 09:52:53;;;;;;;;;;;;;;;;;;349965;28;890;-78
2022/01/21 09:53:06;;;;;;;;;;;;;;;;;;350230;28;764;-79
2022/01/21 09:53:18;;;;;;;;;;;;;;;;;;350069;28;969;-78
2022/01/21 09:53:32;;;;;;;;;;;;;;;;;;348789;28;838;-72
2022/01/21 09:53:43;;;;;;;;;;;;;;;;;;348750;28;977;-83
2022/01/21 09:53:55;;;;;;;;;;;;;;;;;;348654;28;889;-82
2022/01/21 09:54:06;;;;;;;;;;;;;;;;;;348626;28;1913;-84
2022/01/21 09:54:17;;;;;;;;;;;;;;;;;;347201;28;1188;-76
2022/01/21 09:54:30;;;;;;;;;;;;;;;;;;348420;28;997;-79
2022/01/21 09:54:48;;;;;;;;;;;;;;;;;;348625;28;985;-83
2022/01/21 09:54:59;;;;;;;;;;;;;;;;;;348802;28;724;-76
2022/01/21 09:55:09;;;;;;;;;;;;;;;;;;348777;28;1084;-77
2022/01/21 09:55:21;;;;;;;;;;;;;;;;;;348751;28;803;-79
2022/01/21 09:55:32;;;;;;;;;;;;;;;;;;348911;28;989;-80